Time;durP1;ratioP1;P1;durP2;ratioP2;P2;SDS_P1;SDS_P2;PMS_P1;PMS_P2;Temp;Humidity;BMP_temperature;BMP_pressure;BME280_temperature;BME280_humidity;BME280_pressure;Samples;Min_cycle;Max_cycle;Signal;HPM_P1;HPM_P2
2022/04/13 00:02:02;;;;;;;6.00;3.40;;;15.40;48.40;;;;;;5057290;28;20424;-45
2022/04/13 00:04:28;;;;;;;3.90;3.27;;;15.40;48.50;;;;;;5055965;28;20488;-45
2022/04/13 00:06:53;;;;;;;5.57;4.10;;;15.40;48.60;;;;;;5057845;28;20448;-44
2022/04/13 00:09:19;;;;;;;5.10;3.60;;;15.40;48.70;;;;;;5058235;28;20182;-44
2022/04/13 00:11:45;;;;;;;5.10;3.60;;;15.40;48.80;;;;;;5056847;28;20174;-45
2022/04/13 00:14:10;;;;;;;5.23;3.30;;;15.30;48.80;;;;;;5056574;28;20263;-45
2022/04/13 00:16:36;;;;;;;3.90;3.40;;;15.30;48.80;;;;;;5057776;28;20170;-45
2022/04/13 00:19:02;;;;;;;3.77;3.37;;;15.40;49.00;;;;;;5057558;28;20283;-45
2022/04/13 00:21:28;;;;;;;4.17;2.97;;;15.30;49.10;;;;;;5057501;28;20405;-45
2022/04/13 00:23:53;;;;;;;4.70;3.00;;;15.30;49.30;;;;;;5056417;28;20468;-44
2022/04/13 00:26:19;;;;;;;3.40;2.90;;;15.30;49.50;;;;;;5057822;28;20527;-44
2022/04/13 00:28:45;;;;;;;5.23;2.50;;;15.30;49.80;;;;;;5057927;28;20174;-44
2022/04/13 00:31:10;;;;;;;3.47;3.10;;;15.30;50.10;;;;;;5057146;28;20218;-45
2022/04/13 00:33:36;;;;;;;3.73;2.80;;;15.20;50.20;;;;;;5057098;28;20275;-44
2022/04/13 00:36:01;;;;;;;4.33;3.00;;;15.20;50.50;;;;;;5056128;28;20185;-44
2022/04/13 00:38:34;;;;;;;4.50;3.50;;;15.20;50.70;;;;;;5056687;28;20206;-44
2022/04/13 00:41:00;;;;;;;4.17;2.80;;;15.10;50.90;;;;;;5057202;28;20475;-44
2022/04/13 00:43:25;;;;;;;4.07;3.07;;;15.10;51.10;;;;;;5056177;28;20644;-44
2022/04/13 00:45:52;;;;;;;3.73;2.83;;;15.10;51.40;;;;;;5056392;28;20611;-45
2022/04/13 00:48:27;;;;;;;3.27;2.97;;;15.10;51.60;;;;;;5057120;28;20623;-44
2022/04/13 00:50:52;;;;;;;3.30;2.87;;;15.00;51.70;;;;;;5055573;28;20420;-45
2022/04/13 00:53:20;;;;;;;4.00;3.40;;;15.00;51.80;;;;;;5056933;28;20846;-44
2022/04/13 00:55:46;;;;;;;3.97;3.00;;;15.00;52.20;;;;;;5055874;28;20182;-44
2022/04/13 00:58:13;;;;;;;4.17;3.60;;;14.90;52.50;;;;;;5055137;28;20440;-44
2022/04/13 01:00:48;;;;;;;3.60;3.13;;;14.90;52.70;;;;;;5055410;28;20460;-44
2022/04/13 01:03:18;;;;;;;3.47;3.13;;;14.80;52.90;;;;;;5055371;28;20468;-45
2022/04/13 01:05:48;;;;;;;3.73;3.30;;;14.80;53.20;;;;;;5055428;28;20690;-44
2022/04/13 01:08:15;;;;;;;4.00;3.10;;;14.80;53.50;;;;;;5055305;28;20428;-44
2022/04/13 01:10:42;;;;;;;3.10;2.70;;;14.80;53.80;;;;;;5055045;28;20413;-44
2022/04/13 01:13:08;;;;;;;6.00;3.63;;;14.70;54.10;;;;;;5055478;28;20433;-44
2022/04/13 01:15:34;;;;;;;3.90;3.20;;;14.70;54.40;;;;;;5055841;28;20413;-44
2022/04/13 01:18:00;;;;;;;2.90;2.67;;;14.60;54.60;;;;;;5054683;28;20871;-44
2022/04/13 01:20:26;;;;;;;4.93;3.30;;;14.60;54.90;;;;;;5055194;28;20255;-44
2022/04/13 01:22:52;;;;;;;3.23;2.90;;;14.50;55.20;;;;;;5055888;28;20615;-44
2022/04/13 01:25:17;;;;;;;3.33;2.83;;;14.50;55.60;;;;;;5056251;28;20565;-45
2022/04/13 01:27:43;;;;;;;3.23;2.80;;;14.40;55.80;;;;;;5057110;28;20222;-44
2022/04/13 01:30:12;;;;;;;3.87;2.80;;;14.40;56.10;;;;;;5055396;28;20269;-44
2022/04/13 01:32:37;;;;;;;3.83;3.40;;;14.40;56.50;;;;;;5055300;28;20417;-44
2022/04/13 01:35:03;;;;;;;4.00;3.17;;;14.30;56.80;;;;;;5055602;28;20421;-53
2022/04/13 01:37:29;;;;;;;4.03;3.60;;;14.30;57.10;;;;;;5056699;28;20186;-44
2022/04/13 01:39:54;;;;;;;4.57;3.17;;;14.30;57.40;;;;;;5053872;28;20456;-45
2022/04/13 01:42:21;;;;;;;3.17;2.77;;;14.20;57.70;;;;;;5055526;28;20182;-44
2022/04/13 01:44:48;;;;;;;3.63;2.83;;;14.20;58.00;;;;;;5055370;28;20204;-44
2022/04/13 01:47:14;;;;;;;4.40;3.10;;;14.20;58.40;;;;;;5056022;28;20486;-44
2022/04/13 01:49:40;;;;;;;3.20;2.90;;;14.10;58.70;;;;;;5055138;28;20512;-45
2022/04/13 01:52:07;;;;;;;4.10;3.03;;;14.10;59.00;;;;;;5054846;28;20425;-44
2022/04/13 01:54:32;;;;;;;3.60;3.20;;;14.00;59.30;;;;;;5055446;28;20433;-44
2022/04/13 01:56:58;;;;;;;5.13;3.20;;;14.00;59.70;;;;;;5056101;28;20435;-45
2022/04/13 01:59:24;;;;;;;4.83;3.53;;;13.90;59.90;;;;;;5055345;28;20456;-44
2022/04/13 02:01:50;;;;;;;4.97;4.57;;;13.90;60.60;;;;;;5055463;28;20198;-44
2022/04/13 02:04:24;;;;;;;4.50;3.97;;;13.90;61.30;;;;;;5054211;28;20737;-44
2022/04/13 02:06:50;;;;;;;6.03;4.40;;;13.80;61.90;;;;;;5055986;28;20420;-44
2022/04/13 02:09:17;;;;;;;4.73;4.17;;;13.80;62.40;;;;;;5055472;28;20878;-45
2022/04/13 02:11:43;;;;;;;5.10;4.60;;;13.80;62.90;;;;;;5055849;28;20417;-44
2022/04/13 02:14:09;;;;;;;5.77;5.17;;;13.70;63.20;;;;;;5054785;28;20701;-45
2022/04/13 02:16:35;;;;;;;5.67;4.50;;;13.70;63.90;;;;;;5056093;28;20435;-45
2022/04/13 02:19:02;;;;;;;5.00;4.53;;;13.70;64.30;;;;;;5055169;28;20180;-45
2022/04/13 02:21:27;;;;;;;5.80;4.20;;;13.60;64.60;;;;;;5055342;28;20420;-44
2022/04/13 02:23:53;;;;;;;5.73;4.73;;;13.60;65.10;;;;;;5055615;28;20487;-44
2022/04/13 02:26:19;;;;;;;5.97;5.43;;;13.60;65.60;;;;;;5055642;28;20237;-44
2022/04/13 02:28:45;;;;;;;6.20;4.90;;;13.60;66.00;;;;;;5055700;28;20178;-45
2022/04/13 02:31:11;;;;;;;5.23;4.70;;;13.50;66.30;;;;;;5055843;28;20429;-44
2022/04/13 02:33:37;;;;;;;6.43;5.53;;;13.50;66.70;;;;;;5055613;28;20421;-44
2022/04/13 02:36:03;;;;;;;5.57;5.00;;;13.50;67.10;;;;;;5054667;28;20424;-44
2022/04/13 02:38:29;;;;;;;5.43;4.90;;;13.50;67.50;;;;;;5055087;28;20174;-44
2022/04/13 02:40:57;;;;;;;6.13;5.27;;;13.50;67.90;;;;;;5054854;28;20179;-43
2022/04/13 02:43:24;;;;;;;5.90;4.90;;;13.40;68.10;;;;;;5055496;28;20206;-44
2022/04/13 02:45:50;;;;;;;6.77;5.27;;;13.40;68.40;;;;;;5058504;28;20858;-44
2022/04/13 02:48:16;;;;;;;5.83;4.77;;;13.40;68.70;;;;;;5057826;28;20425;-44
2022/04/13 02:50:41;;;;;;;5.33;4.60;;;13.40;69.10;;;;;;5058383;28;20474;-44
2022/04/13 02:53:07;;;;;;;7.00;5.10;;;13.40;69.40;;;;;;5058001;28;20273;-44
2022/04/13 02:55:33;;;;;;;9.90;5.83;;;13.30;69.60;;;;;;5057690;28;20206;-44
2022/04/13 02:57:59;;;;;;;5.57;5.07;;;13.30;69.90;;;;;;5057283;28;20560;-44
2022/04/13 03:00:24;;;;;;;6.63;4.60;;;13.30;70.30;;;;;;5058613;28;20416;-44
2022/04/13 03:02:50;;;;;;;5.60;5.00;;;13.30;70.70;;;;;;5058669;28;20166;-44
2022/04/13 03:05:16;;;;;;;6.70;5.30;;;13.30;71.20;;;;;;5058457;28;20244;-44
2022/04/13 03:07:42;;;;;;;4.33;3.90;;;13.20;71.70;;;;;;5058289;28;20553;-45
2022/04/13 03:10:08;;;;;;;4.77;4.37;;;13.20;72.10;;;;;;5057144;28;20432;-45
2022/04/13 03:12:34;;;;;;;5.50;4.43;;;13.20;72.40;;;;;;5058517;28;20189;-44
2022/04/13 03:15:03;;;;;;;5.50;4.67;;;13.20;72.80;;;;;;5057384;28;20770;-44
2022/04/13 03:17:29;;;;;;;5.20;4.17;;;13.10;73.10;;;;;;5057679;28;20508;-45
2022/04/13 03:19:54;;;;;;;4.77;4.37;;;13.00;73.40;;;;;;5058312;28;20516;-45
2022/04/13 03:22:23;;;;;;;4.93;4.53;;;13.00;73.90;;;;;;5057770;28;20186;-45
2022/04/13 03:24:50;;;;;;;4.77;4.27;;;12.90;74.20;;;;;;5058293;28;20208;-44
2022/04/13 03:27:16;;;;;;;4.60;4.20;;;12.90;74.60;;;;;;5057469;28;20501;-45
2022/04/13 03:29:42;;;;;;;5.33;4.80;;;12.90;75.00;;;;;;5057573;28;20421;-44
2022/04/13 03:32:08;;;;;;;5.10;4.60;;;12.90;75.50;;;;;;5056616;28;20438;-44
2022/04/13 03:34:34;;;;;;;5.90;4.53;;;12.90;75.90;;;;;;5057093;28;20190;-45
2022/04/13 03:37:00;;;;;;;4.80;4.10;;;12.80;76.00;;;;;;5057024;28;20432;-44
2022/04/13 03:39:26;;;;;;;5.93;5.23;;;12.80;76.30;;;;;;5058458;28;20496;-45
2022/04/13 03:41:52;;;;;;;6.07;4.60;;;12.80;76.50;;;;;;5056444;28;20743;-45
2022/04/13 03:44:18;;;;;;;4.90;4.20;;;12.70;76.80;;;;;;5056290;28;20476;-44
2022/04/13 03:46:43;;;;;;;5.63;5.10;;;12.70;77.10;;;;;;5055687;28;20853;-45
2022/04/13 03:49:09;;;;;;;5.77;4.60;;;12.70;77.40;;;;;;5055868;28;20185;-44
2022/04/13 03:51:35;;;;;;;5.47;4.90;;;12.70;77.80;;;;;;5055383;28;20192;-44
2022/04/13 03:54:02;;;;;;;4.90;4.03;;;12.70;78.00;;;;;;5055695;28;20528;-45
2022/04/13 03:56:29;;;;;;;5.57;4.37;;;12.70;78.20;;;;;;5054314;28;20835;-44
2022/04/13 03:58:58;;;;;;;5.30;4.80;;;12.60;78.40;;;;;;5053598;28;20436;-44
2022/04/13 04:01:24;;;;;;;6.10;4.60;;;12.60;78.70;;;;;;5053274;28;20427;-44
2022/04/13 04:03:49;;;;;;;5.83;4.80;;;12.60;79.00;;;;;;5054221;28;20468;-46
2022/04/13 04:06:15;;;;;;;5.73;4.67;;;12.50;79.30;;;;;;5053724;28;20424;-43
2022/04/13 04:08:41;;;;;;;4.93;4.33;;;12.50;79.60;;;;;;5054300;28;20475;-43
2022/04/13 04:11:06;;;;;;;4.63;4.23;;;12.50;79.90;;;;;;5054401;28;20248;-46
2022/04/13 04:13:32;;;;;;;6.20;4.37;;;12.50;80.00;;;;;;5036676;28;20448;-42
2022/04/13 04:15:59;;;;;;;4.03;3.63;;;12.50;80.30;;;;;;5054571;28;20182;-43
2022/04/13 04:18:25;;;;;;;4.37;3.73;;;12.50;80.40;;;;;;5055088;28;20206;-42
2022/04/13 04:20:50;;;;;;;3.67;3.33;;;12.40;80.20;;;;;;5054653;28;20456;-44
2022/04/13 04:23:16;;;;;;;4.43;3.90;;;12.40;80.40;;;;;;5055512;28;20477;-42
2022/04/13 04:25:42;;;;;;;7.93;3.97;;;12.40;80.60;;;;;;5055737;28;20186;-41
2022/04/13 04:28:10;;;;;;;5.30;4.30;;;12.40;80.70;;;;;;5055058;28;20235;-43
2022/04/13 04:30:37;;;;;;;5.23;4.73;;;12.40;80.90;;;;;;5053294;28;20632;-43
2022/04/13 04:33:04;;;;;;;5.67;4.07;;;12.40;81.10;;;;;;5054844;28;20419;-43
2022/04/13 04:35:29;;;;;;;4.40;3.70;;;12.40;81.30;;;;;;5053136;28;20658;-43
2022/04/13 04:37:55;;;;;;;4.40;4.00;;;12.30;81.20;;;;;;5051828;28;20409;-43
2022/04/13 04:40:20;;;;;;;6.80;4.00;;;12.30;81.30;;;;;;5052396;28;20205;-42
2022/04/13 04:42:47;;;;;;;4.60;4.13;;;12.30;81.40;;;;;;5034155;28;20183;-42
2022/04/13 04:45:19;;;;;;;4.80;3.70;;;12.30;81.50;;;;;;5051674;28;20202;-43
2022/04/13 04:47:49;;;;;;;3.33;3.03;;;12.20;81.70;;;;;;5052307;28;20428;-42
2022/04/13 04:50:15;;;;;;;4.03;3.47;;;12.20;81.80;;;;;;5050564;28;20428;-43
2022/04/13 04:52:42;;;;;;;4.10;3.70;;;12.20;82.10;;;;;;5050718;28;20596;-45
2022/04/13 04:55:09;;;;;;;4.37;3.97;;;12.20;82.30;;;;;;5050332;28;20562;-42
2022/04/13 04:57:35;;;;;;;5.00;4.07;;;12.20;83.40;;;;;;5041031;28;20724;-43
2022/04/13 05:00:00;;;;;;;5.13;4.50;;;12.20;82.80;;;;;;5027354;28;20430;-43
2022/04/13 05:02:26;;;;;;;5.10;3.63;;;12.20;82.90;;;;;;5028671;28;20616;-43
2022/04/13 05:04:51;;;;;;;4.90;4.37;;;12.20;83.10;;;;;;5027999;28;20203;-43
2022/04/13 05:07:17;;;;;;;4.87;4.13;;;12.20;83.20;;;;;;5031175;28;20659;-42
2022/04/13 05:09:43;;;;;;;6.73;3.90;;;12.20;83.20;;;;;;5027539;28;20206;-44
2022/04/13 05:12:09;;;;;;;4.80;4.40;;;12.20;83.20;;;;;;5029728;28;20232;-44
2022/04/13 05:14:35;;;;;;;4.53;4.13;;;12.30;83.40;;;;;;5031361;28;20175;-45
2022/04/13 05:17:01;;;;;;;5.07;4.60;;;12.30;83.40;;;;;;5031060;28;20432;-45
2022/04/13 05:19:27;;;;;;;5.50;4.40;;;12.30;83.40;;;;;;5030464;28;20415;-44
2022/04/13 05:21:53;;;;;;;4.80;4.33;;;12.40;83.50;;;;;;5028275;28;20429;-43
2022/04/13 05:24:18;;;;;;;2.10;1.90;;;12.40;83.50;;;;;;5025999;28;20927;-44
2022/04/13 05:26:44;;;;;;;2.33;1.90;;;12.60;89.60;;;;;;5026135;28;20256;-45
2022/04/13 05:29:09;;;;;;;2.20;1.80;;;13.10;90.80;;;;;;5027553;28;20266;-44
2022/04/13 05:31:35;;;;;;;6.07;2.60;;;13.50;90.50;;;;;;5025048;28;20559;-44
2022/04/13 05:34:01;;;;;;;3.30;2.10;;;14.00;89.40;;;;;;5027678;28;20175;-43
2022/04/13 05:36:26;;;;;;;2.97;2.10;;;14.40;87.30;;;;;;5027764;28;20274;-43
2022/04/13 05:38:52;;;;;;;2.50;1.90;;;14.90;85.60;;;;;;5029621;28;20327;-44
2022/04/13 05:41:17;;;;;;;2.60;2.10;;;15.30;84.00;;;;;;5028823;28;20183;-45
2022/04/13 05:43:43;;;;;;;3.10;2.00;;;15.60;82.30;;;;;;5029599;28;20213;-45
2022/04/13 05:46:09;;;;;;;5.87;2.70;;;15.90;80.60;;;;;;5028456;28;20237;-45
2022/04/13 05:48:34;;;;;;;2.60;2.40;;;16.20;79.00;;;;;;5026208;28;20166;-44
2022/04/13 05:51:00;;;;;;;2.57;2.37;;;16.40;78.40;;;;;;5027090;28;20577;-45
2022/04/13 05:53:26;;;;;;;2.50;2.30;;;16.60;76.50;;;;;;5028232;28;20477;-46
2022/04/13 05:55:55;;;;;;;23.07;4.20;;;16.80;75.30;;;;;;5025980;28;20177;-45
2022/04/13 05:58:24;;;;;;;3.10;2.50;;;16.90;74.20;;;;;;5026003;28;20479;-44
2022/04/13 06:00:49;;;;;;;3.57;3.00;;;17.10;73.20;;;;;;5006945;28;20426;-45
2022/04/13 06:03:15;;;;;;;3.30;3.00;;;17.20;72.20;;;;;;5026621;28;20443;-44
2022/04/13 06:05:42;;;;;;;3.00;2.70;;;17.40;71.30;;;;;;5027000;28;20229;-47
2022/04/13 06:08:08;;;;;;;3.33;2.47;;;17.50;70.40;;;;;;5027167;28;20505;-44
2022/04/13 06:10:34;;;;;;;3.40;2.47;;;17.60;69.50;;;;;;5024516;28;20591;-44
2022/04/13 06:12:59;;;;;;;3.50;2.57;;;17.70;68.70;;;;;;5025499;28;20472;-43
2022/04/13 06:15:25;;;;;;;3.60;3.30;;;17.90;68.10;;;;;;5026443;28;20840;-44
2022/04/13 06:17:51;;;;;;;3.50;3.00;;;18.00;67.30;;;;;;5025060;28;20607;-46
2022/04/13 06:20:17;;;;;;;5.70;3.33;;;18.10;66.50;;;;;;5029992;28;20188;-43
2022/04/13 06:22:43;;;;;;;2.80;2.50;;;18.20;65.70;;;;;;5031316;28;20520;-43
2022/04/13 06:25:10;;;;;;;4.37;3.40;;;18.30;65.10;;;;;;5033682;28;20963;-46
2022/04/13 06:27:36;;;;;;;5.13;3.67;;;18.50;64.50;;;;;;5033116;28;20573;-45
2022/04/13 06:30:03;;;;;;;3.60;3.17;;;18.60;63.80;;;;;;5034396;28;20460;-44
2022/04/13 06:32:32;;;;;;;4.50;3.83;;;18.70;63.10;;;;;;5031777;28;20482;-44
2022/04/13 06:34:59;;;;;;;3.67;3.30;;;18.80;62.40;;;;;;5031650;28;20847;-44
2022/04/13 06:37:25;;;;;;;7.10;4.13;;;18.90;61.70;;;;;;5032143;28;20437;-44
2022/04/13 06:39:51;;;;;;;3.43;3.07;;;19.00;61.00;;;;;;5031888;28;20414;-45
2022/04/13 06:42:16;;;;;;;5.40;3.90;;;19.20;60.50;;;;;;5031906;28;20180;-45
2022/04/13 06:44:42;;;;;;;4.90;4.00;;;19.20;59.90;;;;;;5032379;28;20665;-48
2022/04/13 06:47:08;;;;;;;6.63;3.80;;;19.40;59.70;;;;;;5032607;28;20529;-45
2022/04/13 06:49:33;;;;;;;4.67;3.73;;;19.40;59.30;;;;;;5031725;28;20179;-44
2022/04/13 06:51:59;;;;;;;4.73;3.97;;;19.60;59.10;;;;;;5030996;28;20165;-45
2022/04/13 06:54:27;;;;;;;4.30;3.50;;;19.70;58.70;;;;;;5031663;28;20527;-45
2022/04/13 06:56:54;;;;;;;8.13;4.10;;;19.80;58.30;;;;;;5032157;28;20172;-46
2022/04/13 06:59:19;;;;;;;3.93;3.63;;;19.90;57.90;;;;;;5029374;28;20443;-45
2022/04/13 07:01:45;;;;;;;5.83;4.17;;;20.10;57.60;;;;;;5030257;28;20532;-45
2022/04/13 07:04:10;;;;;;;4.70;3.93;;;20.20;57.30;;;;;;5032363;28;20577;-44
2022/04/13 07:06:36;;;;;;;4.30;3.97;;;20.30;57.40;;;;;;5030320;28;20180;-46
2022/04/13 07:09:02;;;;;;;6.90;4.10;;;20.50;56.60;;;;;;5032359;28;20240;-44
2022/04/13 07:11:27;;;;;;;5.37;4.03;;;20.60;56.20;;;;;;5027807;28;20175;-44
2022/04/13 07:13:53;;;;;;;4.83;4.20;;;20.80;55.80;;;;;;5030778;28;20476;-47
2022/04/13 07:16:19;;;;;;;5.50;4.40;;;21.00;55.40;;;;;;5030286;28;20554;-44
2022/04/13 07:18:44;;;;;;;6.77;3.93;;;21.10;55.00;;;;;;5029720;28;20181;-44
2022/04/13 07:21:10;;;;;;;5.00;3.90;;;21.30;54.60;;;;;;5033353;28;20246;-46
2022/04/13 07:23:36;;;;;;;4.27;3.87;;;21.40;54.20;;;;;;5032207;28;20217;-45
2022/04/13 07:26:02;;;;;;;5.23;4.43;;;21.60;53.90;;;;;;5031321;28;20226;-44
2022/04/13 07:28:28;;;;;;;5.73;4.33;;;21.70;53.50;;;;;;5032716;28;20730;-47
2022/04/13 07:30:53;;;;;;;7.57;4.07;;;21.90;53.20;;;;;;5032682;28;20262;-49
2022/04/13 07:33:19;;;;;;;4.13;3.60;;;22.10;52.90;;;;;;5031277;28;20250;-45
2022/04/13 07:35:45;;;;;;;5.97;4.30;;;22.20;52.60;;;;;;5027297;28;20178;-47
2022/04/13 07:38:10;;;;;;;4.70;4.30;;;22.30;52.30;;;;;;5028714;28;20556;-47
2022/04/13 07:40:36;;;;;;;4.83;4.43;;;22.50;52.00;;;;;;5029545;28;20177;-45
2022/04/13 07:43:01;;;;;;;4.90;4.40;;;22.60;51.70;;;;;;5029461;28;20189;-45
2022/04/13 07:45:27;;;;;;;5.40;4.87;;;22.80;51.40;;;;;;5026200;28;20752;-44
2022/04/13 07:47:53;;;;;;;6.07;5.13;;;23.00;51.10;;;;;;5029841;28;20286;-47
2022/04/13 07:50:18;;;;;;;5.53;5.03;;;23.20;50.80;;;;;;5028320;28;20177;-47
2022/04/13 07:52:45;;;;;;;10.20;4.73;;;23.30;50.40;;;;;;5031999;28;20181;-45
2022/04/13 07:55:11;;;;;;;4.50;4.03;;;23.50;50.20;;;;;;5031168;28;20181;-45
2022/04/13 07:57:38;;;;;;;7.00;4.50;;;23.70;50.00;;;;;;5027610;28;20740;-45
2022/04/13 08:00:05;;;;;;;5.03;4.53;;;23.90;49.60;;;;;;5030880;28;20567;-46
2022/04/13 08:02:33;;;;;;;7.83;4.37;;;24.10;49.20;;;;;;5044101;28;20676;-46
2022/04/13 08:04:59;;;;;;;5.50;4.40;;;24.30;48.70;;;;;;5050878;28;20466;-45
2022/04/13 08:07:25;;;;;;;5.00;3.73;;;24.50;48.30;;;;;;5053102;28;20574;-45
2022/04/13 08:09:51;;;;;;;6.03;3.90;;;24.70;47.90;;;;;;5052670;28;20537;-48
2022/04/13 08:12:21;;;;;;;4.83;4.33;;;24.90;47.30;;;;;;5053765;28;20414;-46
2022/04/13 08:14:47;;;;;;;4.30;4.00;;;25.10;46.90;;;;;;5052561;28;20993;-44
2022/04/13 08:17:13;;;;;;;5.10;4.60;;;25.20;46.90;;;;;;5050982;28;20441;-45
2022/04/13 08:19:39;;;;;;;5.60;4.10;;;25.40;46.10;;;;;;5048159;28;20279;-44
2022/04/13 08:22:05;;;;;;;4.23;3.83;;;25.50;45.70;;;;;;5041833;28;20458;-44
2022/04/13 08:24:31;;;;;;;4.33;3.90;;;25.60;45.40;;;;;;5052220;28;20219;-45
2022/04/13 08:26:59;;;;;;;5.40;4.40;;;25.80;45.10;;;;;;5050103;28;20792;-44
2022/04/13 08:29:26;;;;;;;4.63;4.10;;;25.90;44.70;;;;;;5048673;28;20178;-46
2022/04/13 08:31:51;;;;;;;4.73;3.83;;;26.10;44.40;;;;;;5050930;28;20759;-45
2022/04/13 08:34:17;;;;;;;6.47;3.90;;;26.20;43.90;;;;;;5051192;28;20420;-46
2022/04/13 08:36:43;;;;;;;4.43;4.03;;;26.40;43.60;;;;;;5052461;28;20188;-44
2022/04/13 08:39:13;;;;;;;5.47;4.40;;;26.50;43.20;;;;;;5034399;28;20282;-45
2022/04/13 08:41:59;;;;;;;4.83;3.80;;;26.60;42.80;;;;;;5031948;28;20171;-46
2022/04/13 08:44:30;;;;;;;4.03;3.63;;;26.80;42.40;;;;;;5032790;28;20736;-47
2022/04/13 08:47:01;;;;;;;3.57;3.27;;;27.00;42.10;;;;;;5032556;28;20412;-47
2022/04/13 08:49:26;;;;;;;6.23;3.77;;;27.20;41.80;;;;;;5028899;28;20436;-46
2022/04/13 08:51:54;;;;;;;5.97;4.20;;;27.40;41.50;;;;;;5026576;28;20418;-45
2022/04/13 08:54:29;;;;;;;5.53;3.80;;;27.70;41.00;;;;;;5028001;28;20185;-47
2022/04/13 08:56:57;;;;;;;4.73;3.60;;;27.90;40.60;;;;;;5028401;28;20569;-48
2022/04/13 08:59:38;;;;;;;5.20;4.07;;;28.20;40.10;;;;;;5029407;28;20498;-47
2022/04/13 09:02:39;;;;;;;5.20;4.00;;;28.40;39.70;;;;;;5028483;28;20440;-46
2022/04/13 09:05:14;;;;;;;6.27;4.27;;;28.60;38.70;;;;;;5029548;28;20679;-44
2022/04/13 09:07:41;;;;;;;4.40;3.80;;;28.90;37.80;;;;;;5029972;28;20384;-45
2022/04/13 09:10:12;;;;;;;5.97;3.60;;;29.10;37.90;;;;;;5029186;28;20683;-46
2022/04/13 09:12:38;;;;;;;3.93;3.60;;;29.30;37.30;;;;;;5030432;28;20431;-44
2022/04/13 09:15:05;;;;;;;5.13;4.10;;;29.50;37.30;;;;;;5030096;28;20422;-48
2022/04/13 09:17:35;;;;;;;6.07;3.50;;;29.60;36.70;;;;;;5030299;28;20426;-46
2022/04/13 09:20:02;;;;;;;5.50;3.80;;;29.80;36.60;;;;;;5029326;28;20408;-45
2022/04/13 09:22:30;;;;;;;4.27;3.03;;;30.00;36.60;;;;;;5031112;28;20516;-46
2022/04/13 09:24:57;;;;;;;7.60;4.20;;;30.10;36.50;;;;;;5026472;28;20887;-45
2022/04/13 09:27:24;;;;;;;5.47;3.83;;;30.20;35.90;;;;;;5025774;28;20792;-46
2022/04/13 09:29:50;;;;;;;4.53;3.63;;;30.40;35.90;;;;;;5027133;28;20653;-45
2022/04/13 09:32:17;;;;;;;4.00;3.60;;;30.60;35.60;;;;;;5028904;28;20918;-45
2022/04/13 09:34:43;;;;;;;5.67;3.60;;;30.80;35.50;;;;;;5028063;28;20491;-45
2022/04/13 09:37:09;;;;;;;3.90;3.50;;;30.90;35.30;;;;;;5030533;28;20511;-44
2022/04/13 09:39:34;;;;;;;3.90;3.27;;;31.10;35.10;;;;;;5029714;28;20341;-47
2022/04/13 09:42:04;;;;;;;8.57;3.70;;;31.10;34.40;;;;;;5029225;28;20197;-47
2022/04/13 09:44:30;;;;;;;4.90;3.33;;;31.20;34.60;;;;;;5029212;28;20209;-45
2022/04/13 09:47:06;;;;;;;5.77;3.33;;;31.30;34.40;;;;;;5029225;28;20661;-47
2022/04/13 09:49:32;;;;;;;6.53;3.80;;;31.50;34.40;;;;;;5027990;28;20702;-46
2022/04/13 09:51:58;;;;;;;4.93;2.73;;;31.80;33.40;;;;;;5028458;28;20657;-49
2022/04/13 09:54:25;;;;;;;4.13;3.10;;;32.00;33.50;;;;;;5028479;28;20189;-46
2022/04/13 09:56:50;;;;;;;5.47;3.27;;;32.10;33.10;;;;;;5030057;28;20448;-43
2022/04/13 09:59:29;;;;;;;3.97;2.73;;;32.20;33.70;;;;;;5028970;28;20874;-48
2022/04/13 10:01:56;;;;;;;4.53;3.30;;;32.40;33.90;;;;;;5026691;28;20572;-46
2022/04/13 10:04:27;;;;;;;4.80;3.43;;;32.60;34.00;;;;;;5027117;28;20440;-48
2022/04/13 10:06:53;;;;;;;4.53;3.40;;;32.70;36.20;;;;;;5027845;28;20399;-47
2022/04/13 10:09:19;;;;;;;3.93;2.70;;;32.60;35.20;;;;;;5028303;28;20418;-48
2022/04/13 10:11:58;;;;;;;6.17;3.10;;;32.70;35.40;;;;;;5025439;28;20757;-47
2022/04/13 10:14:23;;;;;;;4.37;2.63;;;32.80;35.00;;;;;;5025911;28;20800;-49
2022/04/13 10:16:52;;;;;;;5.43;2.50;;;33.00;33.90;;;;;;5028055;28;20517;-46
2022/04/13 10:19:21;;;;;;;4.73;3.00;;;33.10;33.90;;;;;;5025994;28;20174;-47
2022/04/13 10:21:47;;;;;;;3.83;2.60;;;33.20;34.50;;;;;;5027039;28;20715;-46
2022/04/13 10:24:18;;;;;;;3.73;2.50;;;33.40;34.30;;;;;;5028532;28;20450;-48
2022/04/13 10:27:09;;;;;;;3.90;2.30;;;33.60;33.40;;;;;;5029598;28;20446;-48
2022/04/13 10:29:36;;;;;;;4.97;2.60;;;33.90;32.50;;;;;;5031345;28;20429;-49
2022/04/13 10:32:15;;;;;;;2.90;2.10;;;34.20;31.50;;;;;;5029787;28;20452;-47
2022/04/13 10:34:51;;;;;;;3.60;2.63;;;34.40;31.90;;;;;;5030016;28;20406;-48
2022/04/13 10:37:21;;;;;;;3.57;2.33;;;34.50;31.70;;;;;;4996338;28;20396;-47
2022/04/13 10:39:48;;;;;;;3.67;2.70;;;34.70;30.60;;;;;;5026504;28;20396;-49
2022/04/13 10:42:18;;;;;;;3.47;2.83;;;35.00;31.10;;;;;;5026828;28;20531;-45
2022/04/13 10:44:58;;;;;;;4.07;2.90;;;35.20;31.30;;;;;;5024396;28;20502;-49
2022/04/13 10:47:36;;;;;;;7.47;2.63;;;35.40;30.40;;;;;;5025908;28;20436;-46
2022/04/13 10:50:03;;;;;;;7.73;2.87;;;35.50;29.90;;;;;;5028100;28;20427;-47
2022/04/13 10:52:44;;;;;;;5.33;2.40;;;35.50;30.30;;;;;;5026677;28;20413;-45
2022/04/13 10:55:14;;;;;;;6.67;2.70;;;35.60;30.40;;;;;;5024597;28;21656;-46
2022/04/13 10:58:06;;;;;;;5.00;2.70;;;35.80;30.00;;;;;;5028291;28;20839;-47
2022/04/13 11:00:34;;;;;;;5.13;2.73;;;35.90;29.90;;;;;;5011895;28;20904;-48
2022/04/13 11:03:04;;;;;;;4.13;2.80;;;36.10;30.00;;;;;;5029324;28;20912;-45
2022/04/13 11:05:31;;;;;;;5.47;3.13;;;36.30;29.80;;;;;;5029319;28;20530;-45
2022/04/13 11:08:08;;;;;;;3.97;2.50;;;36.40;29.70;;;;;;5032106;28;20424;-45
2022/04/13 11:10:35;;;;;;;5.20;2.70;;;36.50;29.60;;;;;;5030909;28;20711;-46
2022/04/13 11:13:01;;;;;;;5.60;2.67;;;36.60;28.40;;;;;;5031520;28;20707;-47
2022/04/13 11:15:42;;;;;;;4.43;2.80;;;36.80;29.00;;;;;;5030658;28;20486;-47
2022/04/13 11:18:10;;;;;;;5.70;2.83;;;36.90;29.30;;;;;;5031143;28;20187;-49
2022/04/13 11:20:36;;;;;;;4.00;2.80;;;37.10;29.30;;;;;;5030495;28;20786;-47
2022/04/13 11:23:12;;;;;;;3.53;2.90;;;37.20;29.10;;;;;;5032548;28;20530;-46
2022/04/13 11:25:47;;;;;;;3.87;2.60;;;37.40;29.20;;;;;;5030793;28;20409;-46
2022/04/13 11:28:26;;;;;;;5.80;2.83;;;37.50;28.80;;;;;;5032046;28;20441;-46
2022/04/13 11:31:08;;;;;;;3.40;2.90;;;37.60;28.80;;;;;;5034219;28;20990;-49
2022/04/13 11:33:52;;;;;;;4.17;2.60;;;37.80;28.30;;;;;;5032738;28;20875;-46
2022/04/13 11:36:21;;;;;;;3.10;2.80;;;37.70;28.20;;;;;;5030045;28;20449;-47
2022/04/13 11:38:53;;;;;;;4.87;2.90;;;37.80;28.20;;;;;;5028870;28;20447;-46
2022/04/13 11:41:20;;;;;;;7.60;2.60;;;37.90;28.50;;;;;;5028713;28;20489;-45
2022/04/13 11:43:46;;;;;;;4.47;3.30;;;38.10;28.10;;;;;;5029201;28;20462;-46
2022/04/13 11:46:39;;;;;;;7.90;3.53;;;38.20;28.10;;;;;;5029534;28;20425;-45
2022/04/13 11:49:10;;;;;;;4.10;2.53;;;38.30;27.80;;;;;;5025613;28;20436;-46
2022/04/13 11:51:36;;;;;;;4.13;2.50;;;38.60;27.70;;;;;;5028768;28;20506;-45
2022/04/13 11:54:08;;;;;;;6.47;2.63;;;38.70;27.80;;;;;;5030916;28;20434;-47
2022/04/13 11:56:39;;;;;;;8.40;2.90;;;38.90;27.40;;;;;;5029787;28;20502;-46
2022/04/13 11:59:06;;;;;;;4.00;3.00;;;38.80;26.80;;;;;;5031492;28;20417;-48
2022/04/13 12:01:33;;;;;;;7.43;2.90;;;38.80;26.80;;;;;;5030977;28;20586;-44
2022/04/13 12:04:03;;;;;;;6.50;3.07;;;38.90;25.70;;;;;;5030367;28;20517;-49
2022/04/13 12:06:30;;;;;;;4.50;2.30;;;38.80;26.40;;;;;;5026597;28;20770;-50
2022/04/13 12:08:58;;;;;;;3.13;2.47;;;38.80;26.30;;;;;;5027921;28;20431;-47
2022/04/13 12:11:37;;;;;;;4.83;2.40;;;38.70;26.30;;;;;;5026466;28;20753;-48
2022/04/13 12:14:03;;;;;;;5.77;2.73;;;38.30;25.90;;;;;;5028372;28;20431;-48
2022/04/13 12:16:34;;;;;;;6.80;2.83;;;38.40;26.30;;;;;;5027413;28;20592;-47
2022/04/13 12:19:10;;;;;;;3.40;2.40;;;38.20;26.60;;;;;;5027804;28;20173;-48
2022/04/13 12:21:39;;;;;;;4.50;2.40;;;38.20;26.10;;;;;;5029085;28;20846;-50
2022/04/13 12:24:14;;;;;;;5.43;2.63;;;38.00;26.00;;;;;;5026358;28;20491;-48
2022/04/13 12:26:47;;;;;;;4.10;2.37;;;37.80;26.00;;;;;;5027126;28;20467;-48
2022/04/13 12:29:18;;;;;;;8.50;3.10;;;37.80;26.70;;;;;;5029345;28;20529;-48
2022/04/13 12:31:54;;;;;;;4.10;2.70;;;38.00;26.70;;;;;;5028677;28;20616;-48
2022/04/13 12:34:22;;;;;;;4.17;2.40;;;38.20;26.40;;;;;;5030126;28;20492;-47
2022/04/13 12:36:58;;;;;;;8.27;2.77;;;38.60;26.10;;;;;;5031270;28;20435;-51
2022/04/13 12:39:34;;;;;;;5.07;3.77;;;38.70;26.10;;;;;;5029678;28;20472;-53
2022/04/13 12:42:01;;;;;;;5.93;3.13;;;38.80;24.40;;;;;;5027928;28;20447;-52
2022/04/13 12:44:28;;;;;;;4.20;2.50;;;38.40;25.50;;;;;;5029342;28;20470;-48
2022/04/13 12:47:07;;;;;;;6.10;3.03;;;38.30;26.00;;;;;;5028832;28;20386;-49
2022/04/13 12:49:36;;;;;;;3.93;2.30;;;38.40;26.00;;;;;;5029594;28;20439;-48
2022/04/13 12:52:02;;;;;;;4.57;2.73;;;38.70;25.90;;;;;;5032436;28;20427;-50